sensor_id;sensor_type;location;lat;lon;timestamp;pressure;altitude;pressure_sealevel;temperature;humidity
25510;BME280;13413;52.336;21.200;2023-03-03T00:02:50;100863.83;;;2.42;58.14
25510;BME280;13413;52.336;21.200;2023-03-03T00:05:44;100860.02;;;2.34;58.72
25510;BME280;13413;52.336;21.200;2023-03-03T00:08:37;100856.81;;;2.30;58.80
25510;BME280;13413;52.336;21.200;2023-03-03T00:11:32;100858.23;;;2.30;58.87
25510;BME280;13413;52.336;21.200;2023-03-03T00:14:30;100851.35;;;2.34;58.92
25510;BME280;13413;52.336;21.200;2023-03-03T00:17:26;100848.46;;;2.38;59.10
25510;BME280;13413;52.336;21.200;2023-03-03T00:20:45;100846.41;;;2.44;59.08
25510;BME280;13413;52.336;21.200;2023-03-03T00:23:41;100842.21;;;2.49;59.05
25510;BME280;13413;52.336;21.200;2023-03-03T00:26:38;100846.63;;;2.51;59.19
25510;BME280;13413;52.336;21.200;2023-03-03T00:29:38;100841.06;;;2.55;59.42
25510;BME280;13413;52.336;21.200;2023-03-03T00:32:41;100839.31;;;2.55;59.33
25510;BME280;13413;52.336;21.200;2023-03-03T00:35:37;100833.15;;;2.63;59.33
25510;BME280;13413;52.336;21.200;2023-03-03T00:38:35;100827.27;;;2.71;59.26
25510;BME280;13413;52.336;21.200;2023-03-03T00:41:29;100822.27;;;2.73;59.48
25510;BME280;13413;52.336;21.200;2023-03-03T00:44:51;100815.94;;;2.76;59.49
25510;BME280;13413;52.336;21.200;2023-03-03T00:47:48;100812.05;;;2.76;59.62
25510;BME280;13413;52.336;21.200;2023-03-03T00:50:44;100810.81;;;2.79;59.51
25510;BME280;13413;52.336;21.200;2023-03-03T00:53:36;100815.35;;;2.86;59.38
25510;BME280;13413;52.336;21.200;2023-03-03T01:00:12;100804.98;;;3.03;59.51
25510;BME280;13413;52.336;21.200;2023-03-03T01:03:08;100804.09;;;3.03;59.87
25510;BME280;13413;52.336;21.200;2023-03-03T01:06:03;100794.77;;;3.00;59.96
25510;BME280;13413;52.336;21.200;2023-03-03T01:08:56;100794.02;;;3.00;59.82
25510;BME280;13413;52.336;21.200;2023-03-03T01:11:52;100787.63;;;3.04;60.00
25510;BME280;13413;52.336;21.200;2023-03-03T01:14:46;100780.77;;;3.02;60.41
25510;BME280;13413;52.336;21.200;2023-03-03T01:17:40;100776.90;;;3.05;60.08
25510;BME280;13413;52.336;21.200;2023-03-03T01:20:34;100768.95;;;3.08;60.14
25510;BME280;13413;52.336;21.200;2023-03-03T01:23:29;100765.16;;;3.07;60.35
25510;BME280;13413;52.336;21.200;2023-03-03T01:26:22;100764.18;;;3.09;60.17
25510;BME280;13413;52.336;21.200;2023-03-03T01:29:16;100763.70;;;3.12;60.24
25510;BME280;13413;52.336;21.200;2023-03-03T01:32:10;100763.55;;;3.12;60.23
25510;BME280;13413;52.336;21.200;2023-03-03T01:35:05;100753.95;;;3.10;60.03
25510;BME280;13413;52.336;21.200;2023-03-03T01:37:59;100748.41;;;3.07;60.27
25510;BME280;13413;52.336;21.200;2023-03-03T01:40:58;100745.38;;;3.05;60.39
25510;BME280;13413;52.336;21.200;2023-03-03T01:43:52;100743.22;;;3.04;60.17
25510;BME280;13413;52.336;21.200;2023-03-03T01:46:53;100742.80;;;3.05;60.17
25510;BME280;13413;52.336;21.200;2023-03-03T01:49:50;100744.31;;;3.06;60.25
25510;BME280;13413;52.336;21.200;2023-03-03T01:52:49;100743.98;;;3.08;60.27
25510;BME280;13413;52.336;21.200;2023-03-03T01:55:44;100745.80;;;3.09;60.16
25510;BME280;13413;52.336;21.200;2023-03-03T01:58:42;100741.30;;;3.13;60.19
25510;BME280;13413;52.336;21.200;2023-03-03T02:01:39;100739.66;;;3.16;60.30
25510;BME280;13413;52.336;21.200;2023-03-03T02:04:35;100740.71;;;3.14;60.22
25510;BME280;13413;52.336;21.200;2023-03-03T02:07:31;100734.31;;;3.12;60.28
25510;BME280;13413;52.336;21.200;2023-03-03T02:10:25;100734.27;;;3.14;60.43
25510;BME280;13413;52.336;21.200;2023-03-03T02:13:20;100735.12;;;3.09;60.44
25510;BME280;13413;52.336;21.200;2023-03-03T02:16:14;100733.42;;;3.13;60.43
25510;BME280;13413;52.336;21.200;2023-03-03T02:19:16;100732.57;;;3.17;60.17
25510;BME280;13413;52.336;21.200;2023-03-03T02:22:15;100734.17;;;3.17;60.25
25510;BME280;13413;52.336;21.200;2023-03-03T02:25:15;100735.45;;;3.10;60.45
25510;BME280;13413;52.336;21.200;2023-03-03T02:31:07;100726.17;;;3.14;60.58
25510;BME280;13413;52.336;21.200;2023-03-03T02:34:01;100736.44;;;3.15;60.27
25510;BME280;13413;52.336;21.200;2023-03-03T02:36:56;100732.41;;;3.15;60.26
25510;BME280;13413;52.336;21.200;2023-03-03T02:39:49;100731.95;;;3.18;60.51
25510;BME280;13413;52.336;21.200;2023-03-03T02:42:44;100727.33;;;3.19;60.47
25510;BME280;13413;52.336;21.200;2023-03-03T02:45:44;100727.48;;;3.16;60.08
25510;BME280;13413;52.336;21.200;2023-03-03T02:48:37;100723.19;;;3.15;60.15
25510;BME280;13413;52.336;21.200;2023-03-03T02:51:32;100717.96;;;3.10;60.13
25510;BME280;13413;52.336;21.200;2023-03-03T02:54:27;100719.58;;;3.05;60.25
25510;BME280;13413;52.336;21.200;2023-03-03T02:57:22;100715.11;;;3.00;60.25
25510;BME280;13413;52.336;21.200;2023-03-03T03:00:15;100713.15;;;2.98;60.38
25510;BME280;13413;52.336;21.200;2023-03-03T03:03:09;100708.38;;;2.92;60.28
25510;BME280;13413;52.336;21.200;2023-03-03T03:06:04;100707.16;;;2.85;60.54
25510;BME280;13413;52.336;21.200;2023-03-03T03:08:58;100699.12;;;2.76;60.69
25510;BME280;13413;52.336;21.200;2023-03-03T03:11:51;100703.11;;;2.72;60.55
25510;BME280;13413;52.336;21.200;2023-03-03T03:17:40;100710.00;;;2.70;60.63
25510;BME280;13413;52.336;21.200;2023-03-03T03:20:38;100711.95;;;2.70;61.02
25510;BME280;13413;52.336;21.200;2023-03-03T03:23:32;100715.16;;;2.71;60.71
25510;BME280;13413;52.336;21.200;2023-03-03T03:26:27;100710.85;;;2.71;60.77
25510;BME280;13413;52.336;21.200;2023-03-03T03:29:25;100710.95;;;2.69;60.79
25510;BME280;13413;52.336;21.200;2023-03-03T03:32:19;100711.55;;;2.66;60.99
25510;BME280;13413;52.336;21.200;2023-03-03T03:35:13;100714.48;;;2.65;61.11
25510;BME280;13413;52.336;21.200;2023-03-03T03:38:07;100711.84;;;2.62;61.12
25510;BME280;13413;52.336;21.200;2023-03-03T03:41:00;100711.89;;;2.60;60.96
25510;BME280;13413;52.336;21.200;2023-03-03T03:43:55;100706.83;;;2.60;60.88
25510;BME280;13413;52.336;21.200;2023-03-03T03:46:49;100702.57;;;2.60;60.87
25510;BME280;13413;52.336;21.200;2023-03-03T03:49:43;100697.42;;;2.57;60.94
25510;BME280;13413;52.336;21.200;2023-03-03T03:52:37;100691.98;;;2.55;61.05
25510;BME280;13413;52.336;21.200;2023-03-03T03:55:32;100690.27;;;2.55;61.16
25510;BME280;13413;52.336;21.200;2023-03-03T04:01:33;100693.11;;;2.52;61.18
25510;BME280;13413;52.336;21.200;2023-03-03T04:07:23;100691.84;;;2.52;61.00
25510;BME280;13413;52.336;21.200;2023-03-03T04:10:17;100685.33;;;2.51;61.41
25510;BME280;13413;52.336;21.200;2023-03-03T04:13:11;100683.06;;;2.49;61.36
25510;BME280;13413;52.336;21.200;2023-03-03T04:16:05;100682.54;;;2.51;61.04
25510;BME280;13413;52.336;21.200;2023-03-03T04:18:59;100673.89;;;2.52;61.20
25510;BME280;13413;52.336;21.200;2023-03-03T04:21:53;100673.42;;;2.54;61.32
25510;BME280;13413;52.336;21.200;2023-03-03T04:24:47;100665.93;;;2.53;61.29
25510;BME280;13413;52.336;21.200;2023-03-03T04:27:41;100660.55;;;2.55;61.34
25510;BME280;13413;52.336;21.200;2023-03-03T04:30:35;100660.79;;;2.57;61.12
25510;BME280;13413;52.336;21.200;2023-03-03T04:33:30;100660.69;;;2.56;61.44
25510;BME280;13413;52.336;21.200;2023-03-03T04:36:25;100654.83;;;2.55;61.50
25510;BME280;13413;52.336;21.200;2023-03-03T04:39:19;100659.19;;;2.55;61.42
25510;BME280;13413;52.336;21.200;2023-03-03T04:42:13;100653.92;;;2.55;61.48
25510;BME280;13413;52.336;21.200;2023-03-03T04:45:09;100651.72;;;2.57;61.53
25510;BME280;13413;52.336;21.200;2023-03-03T04:48:03;100645.95;;;2.57;61.53
25510;BME280;13413;52.336;21.200;2023-03-03T04:50:58;100644.26;;;2.58;61.60
25510;BME280;13413;52.336;21.200;2023-03-03T04:53:52;100644.09;;;2.58;61.48
25510;BME280;13413;52.336;21.200;2023-03-03T04:56:46;100645.64;;;2.56;61.84
25510;BME280;13413;52.336;21.200;2023-03-03T04:59:40;100638.52;;;2.58;61.72
25510;BME280;13413;52.336;21.200;2023-03-03T05:02:34;100640.03;;;2.56;61.76
25510;BME280;13413;52.336;21.200;2023-03-03T05:05:28;100636.59;;;2.58;61.62
25510;BME280;13413;52.336;21.200;2023-03-03T05:08:22;100642.16;;;2.63;61.77
25510;BME280;13413;52.336;21.200;2023-03-03T05:11:15;100637.70;;;2.64;61.64
25510;BME280;13413;52.336;21.200;2023-03-03T05:14:10;100634.66;;;2.61;61.92
25510;BME280;13413;52.336;21.200;2023-03-03T05:17:04;100636.75;;;2.58;62.02
25510;BME280;13413;52.336;21.200;2023-03-03T05:19:58;100635.82;;;2.63;61.64
25510;BME280;13413;52.336;21.200;2023-03-03T05:22:52;100637.05;;;2.66;61.69
25510;BME280;13413;52.336;21.200;2023-03-03T05:25:47;100634.45;;;2.61;61.86
25510;BME280;13413;52.336;21.200;2023-03-03T05:28:40;100628.95;;;2.58;61.76
25510;BME280;13413;52.336;21.200;2023-03-03T05:42:37;100632.52;;;2.70;61.97
25510;BME280;13413;52.336;21.200;2023-03-03T05:45:30;100629.20;;;2.77;61.81
25510;BME280;13413;52.336;21.200;2023-03-03T05:48:25;100629.96;;;2.76;62.10
25510;BME280;13413;52.336;21.200;2023-03-03T05:51:18;100628.82;;;2.82;62.22
25510;BME280;13413;52.336;21.200;2023-03-03T05:54:13;100622.20;;;2.82;62.19
25510;BME280;13413;52.336;21.200;2023-03-03T05:57:08;100622.48;;;2.83;62.17
25510;BME280;13413;52.336;21.200;2023-03-03T06:00:02;100622.42;;;2.83;62.32
25510;BME280;13413;52.336;21.200;2023-03-03T06:02:55;100620.16;;;2.87;62.12
25510;BME280;13413;52.336;21.200;2023-03-03T06:05:51;100613.39;;;2.89;62.38
25510;BME280;13413;52.336;21.200;2023-03-03T06:08:45;100616.83;;;2.88;62.41
25510;BME280;13413;52.336;21.200;2023-03-03T06:11:40;100624.19;;;2.92;62.23
25510;BME280;13413;52.336;21.200;2023-03-03T06:14:33;100624.54;;;2.94;62.34
25510;BME280;13413;52.336;21.200;2023-03-03T06:17:28;100623.98;;;2.96;62.20
25510;BME280;13413;52.336;21.200;2023-03-03T06:20:21;100629.99;;;2.96;62.42
25510;BME280;13413;52.336;21.200;2023-03-03T06:23:15;100624.50;;;2.81;63.02
25510;BME280;13413;52.336;21.200;2023-03-03T06:26:10;100622.65;;;2.78;63.09
25510;BME280;13413;52.336;21.200;2023-03-03T06:29:04;100618.67;;;2.87;63.12
25510;BME280;13413;52.336;21.200;2023-03-03T06:31:57;100616.85;;;2.87;63.09
25510;BME280;13413;52.336;21.200;2023-03-03T06:34:52;100611.42;;;2.94;62.98
25510;BME280;13413;52.336;21.200;2023-03-03T06:37:46;100608.94;;;2.99;62.99
25510;BME280;13413;52.336;21.200;2023-03-03T06:40:39;100610.89;;;2.99;63.10
25510;BME280;13413;52.336;21.200;2023-03-03T06:43:34;100614.09;;;3.00;63.08
25510;BME280;13413;52.336;21.200;2023-03-03T06:46:28;100618.11;;;3.00;63.03
25510;BME280;13413;52.336;21.200;2023-03-03T06:49:22;100621.90;;;2.99;63.15
25510;BME280;13413;52.336;21.200;2023-03-03T06:52:21;100619.66;;;3.03;63.00
25510;BME280;13413;52.336;21.200;2023-03-03T06:55:20;100618.58;;;3.07;62.85
25510;BME280;13413;52.336;21.200;2023-03-03T06:58:17;100623.98;;;3.10;63.31
25510;BME280;13413;52.336;21.200;2023-03-03T07:01:16;100625.95;;;3.16;63.23
25510;BME280;13413;52.336;21.200;2023-03-03T07:04:15;100632.70;;;3.23;63.19
25510;BME280;13413;52.336;21.200;2023-03-03T07:07:17;100634.63;;;3.23;63.13
25510;BME280;13413;52.336;21.200;2023-03-03T07:10:21;100630.29;;;3.29;63.11
25510;BME280;13413;52.336;21.200;2023-03-03T07:13:20;100629.30;;;3.33;63.08
25510;BME280;13413;52.336;21.200;2023-03-03T07:16:17;100620.75;;;3.30;63.27
25510;BME280;13413;52.336;21.200;2023-03-03T07:19:18;100616.57;;;3.17;63.31
25510;BME280;13413;52.336;21.200;2023-03-03T07:22:17;100619.31;;;3.22;63.27
25510;BME280;13413;52.336;21.200;2023-03-03T07:25:20;100619.80;;;3.20;63.00
25510;BME280;13413;52.336;21.200;2023-03-03T07:28:21;100617.69;;;3.18;63.20
25510;BME280;13413;52.336;21.200;2023-03-03T07:31:28;100618.42;;;3.16;63.43
25510;BME280;13413;52.336;21.200;2023-03-03T07:34:26;100617.66;;;3.12;63.82
25510;BME280;13413;52.336;21.200;2023-03-03T07:37:34;100618.61;;;3.18;63.57
25510;BME280;13413;52.336;21.200;2023-03-03T07:40:36;100619.98;;;3.20;63.58
25510;BME280;13413;52.336;21.200;2023-03-03T07:43:36;100631.42;;;3.15;63.80
25510;BME280;13413;52.336;21.200;2023-03-03T07:46:36;100628.90;;;3.16;64.06
25510;BME280;13413;52.336;21.200;2023-03-03T07:49:35;100630.95;;;3.21;64.01
25510;BME280;13413;52.336;21.200;2023-03-03T07:52:29;100633.13;;;3.29;63.88
25510;BME280;13413;52.336;21.200;2023-03-03T07:55:24;100641.08;;;3.30;64.05
25510;BME280;13413;52.336;21.200;2023-03-03T08:03:01;100651.83;;;3.40;64.02
25510;BME280;13413;52.336;21.200;2023-03-03T08:05:56;100650.02;;;3.34;64.15
25510;BME280;13413;52.336;21.200;2023-03-03T08:08:50;100650.83;;;3.45;64.02
25510;BME280;13413;52.336;21.200;2023-03-03T08:11:50;100664.05;;;3.57;63.72
25510;BME280;13413;52.336;21.200;2023-03-03T08:14:44;100660.55;;;3.67;63.60
25510;BME280;13413;52.336;21.200;2023-03-03T08:17:40;100662.75;;;3.53;63.82
25510;BME280;13413;52.336;21.200;2023-03-03T08:20:44;100668.13;;;3.58;63.71
25510;BME280;13413;52.336;21.200;2023-03-03T08:23:39;100673.21;;;3.67;63.71
25510;BME280;13413;52.336;21.200;2023-03-03T08:26:33;100705.89;;;3.78;63.75
25510;BME280;13413;52.336;21.200;2023-03-03T08:29:26;100706.81;;;3.80;63.50
25510;BME280;13413;52.336;21.200;2023-03-03T08:32:21;100701.77;;;3.80;63.31
25510;BME280;13413;52.336;21.200;2023-03-03T08:38:23;100708.73;;;3.86;63.31
25510;BME280;13413;52.336;21.200;2023-03-03T08:41:17;100696.81;;;3.91;63.03
25510;BME280;13413;52.336;21.200;2023-03-03T08:44:12;100696.64;;;3.97;63.15
25510;BME280;13413;52.336;21.200;2023-03-03T08:47:06;100696.96;;;3.95;63.09
25510;BME280;13413;52.336;21.200;2023-03-03T08:50:00;100693.32;;;3.88;63.18
25510;BME280;13413;52.336;21.200;2023-03-03T08:52:54;100690.55;;;3.92;63.01
25510;BME280;13413;52.336;21.200;2023-03-03T08:55:47;100692.80;;;3.95;62.94
25510;BME280;13413;52.336;21.200;2023-03-03T08:58:42;100693.52;;;3.88;63.01
25510;BME280;13413;52.336;21.200;2023-03-03T09:01:36;100693.19;;;3.92;62.93
25510;BME280;13413;52.336;21.200;2023-03-03T09:04:30;100692.86;;;3.90;63.29
25510;BME280;13413;52.336;21.200;2023-03-03T09:07:24;100694.30;;;3.79;63.06
25510;BME280;13413;52.336;21.200;2023-03-03T09:10:21;100697.64;;;3.78;63.28
25510;BME280;13413;52.336;21.200;2023-03-03T09:13:17;100694.73;;;3.82;63.31
25510;BME280;13413;52.336;21.200;2023-03-03T09:16:14;100689.48;;;3.95;63.22
25510;BME280;13413;52.336;21.200;2023-03-03T09:19:23;100686.17;;;4.03;63.02
25510;BME280;13413;52.336;21.200;2023-03-03T09:22:21;100678.10;;;4.03;63.26
25510;BME280;13413;52.336;21.200;2023-03-03T09:25:22;100667.50;;;4.02;63.14
25510;BME280;13413;52.336;21.200;2023-03-03T09:28:24;100661.89;;;3.92;63.17
25510;BME280;13413;52.336;21.200;2023-03-03T09:31:29;100658.73;;;3.92;63.21
25510;BME280;13413;52.336;21.200;2023-03-03T09:34:38;100643.39;;;3.89;63.38
25510;BME280;13413;52.336;21.200;2023-03-03T09:37:36;100640.23;;;3.83;63.42
25510;BME280;13413;52.336;21.200;2023-03-03T09:40:44;100631.96;;;3.86;63.53
25510;BME280;13413;52.336;21.200;2023-03-03T09:43:55;100631.48;;;3.87;63.30
25510;BME280;13413;52.336;21.200;2023-03-03T09:47:04;100642.34;;;3.96;63.03
25510;BME280;13413;52.336;21.200;2023-03-03T09:50:06;100646.88;;;4.02;63.19
25510;BME280;13413;52.336;21.200;2023-03-03T09:53:14;100642.66;;;4.05;63.28
25510;BME280;13413;52.336;21.200;2023-03-03T09:56:18;100649.79;;;3.90;63.31
25510;BME280;13413;52.336;21.200;2023-03-03T09:59:26;100655.84;;;3.93;63.11
25510;BME280;13413;52.336;21.200;2023-03-03T10:02:35;100652.80;;;3.92;63.18
25510;BME280;13413;52.336;21.200;2023-03-03T10:05:37;100656.05;;;3.97;63.05
25510;BME280;13413;52.336;21.200;2023-03-03T10:08:47;100657.77;;;3.99;63.13
25510;BME280;13413;52.336;21.200;2023-03-03T10:11:51;100663.82;;;3.96;63.07
25510;BME280;13413;52.336;21.200;2023-03-03T10:14:49;100664.80;;;3.97;63.03
25510;BME280;13413;52.336;21.200;2023-03-03T10:23:39;100664.23;;;4.02;62.99
25510;BME280;13413;52.336;21.200;2023-03-03T10:26:50;100662.70;;;4.07;62.90
25510;BME280;13413;52.336;21.200;2023-03-03T10:29:56;100662.96;;;4.04;62.81
25510;BME280;13413;52.336;21.200;2023-03-03T10:32:53;100668.50;;;4.03;63.05
25510;BME280;13413;52.336;21.200;2023-03-03T10:36:05;100665.44;;;4.04;62.97
25510;BME280;13413;52.336;21.200;2023-03-03T10:39:35;100664.49;;;3.90;63.13
25510;BME280;13413;52.336;21.200;2023-03-03T10:42:45;100670.05;;;3.91;63.08
25510;BME280;13413;52.336;21.200;2023-03-03T10:46:03;100672.70;;;3.88;63.15
25510;BME280;13413;52.336;21.200;2023-03-03T10:49:18;100668.45;;;3.91;62.99
25510;BME280;13413;52.336;21.200;2023-03-03T10:52:24;100674.11;;;3.94;63.01
25510;BME280;13413;52.336;21.200;2023-03-03T10:55:34;100672.13;;;3.95;63.13
25510;BME280;13413;52.336;21.200;2023-03-03T10:58:42;100666.88;;;3.89;63.17
25510;BME280;13413;52.336;21.200;2023-03-03T11:01:46;100659.69;;;3.87;63.05
25510;BME280;13413;52.336;21.200;2023-03-03T11:05:03;100665.51;;;3.86;62.99
25510;BME280;13413;52.336;21.200;2023-03-03T11:08:10;100673.09;;;3.88;63.19
25510;BME280;13413;52.336;21.200;2023-03-03T11:11:11;100667.20;;;3.87;63.39
25510;BME280;13413;52.336;21.200;2023-03-03T11:14:11;100663.39;;;3.93;63.10
25510;BME280;13413;52.336;21.200;2023-03-03T11:17:13;100659.85;;;4.02;63.07
25510;BME280;13413;52.336;21.200;2023-03-03T11:20:19;100658.27;;;4.00;63.05
25510;BME280;13413;52.336;21.200;2023-03-03T11:23:31;100658.17;;;4.01;63.11
25510;BME280;13413;52.336;21.200;2023-03-03T11:26:40;100657.13;;;4.01;63.11
25510;BME280;13413;52.336;21.200;2023-03-03T11:29:55;100651.22;;;3.96;62.95
25510;BME280;13413;52.336;21.200;2023-03-03T11:33:00;100651.02;;;4.05;62.96
25510;BME280;13413;52.336;21.200;2023-03-03T11:36:08;100645.15;;;4.10;62.90
25510;BME280;13413;52.336;21.200;2023-03-03T11:39:06;100639.63;;;4.11;63.12
25510;BME280;13413;52.336;21.200;2023-03-03T11:42:10;100636.08;;;4.09;63.04
25510;BME280;13413;52.336;21.200;2023-03-03T11:45:14;100637.27;;;4.12;63.07
25510;BME280;13413;52.336;21.200;2023-03-03T11:48:17;100640.73;;;4.19;62.85
25510;BME280;13413;52.336;21.200;2023-03-03T11:51:18;100646.42;;;4.18;62.82
25510;BME280;13413;52.336;21.200;2023-03-03T11:54:19;100646.18;;;4.23;62.95
25510;BME280;13413;52.336;21.200;2023-03-03T11:57:19;100646.61;;;4.28;62.63
25510;BME280;13413;52.336;21.200;2023-03-03T12:00:26;100642.24;;;4.24;62.85
25510;BME280;13413;52.336;21.200;2023-03-03T12:03:26;100642.23;;;4.18;62.76
25510;BME280;13413;52.336;21.200;2023-03-03T12:06:27;100641.97;;;4.13;62.82
25510;BME280;13413;52.336;21.200;2023-03-03T12:09:32;100643.82;;;4.11;62.87
25510;BME280;13413;52.336;21.200;2023-03-03T12:12:32;100641.13;;;4.08;62.89
25510;BME280;13413;52.336;21.200;2023-03-03T12:15:34;100638.11;;;4.04;62.90
25510;BME280;13413;52.336;21.200;2023-03-03T12:18:44;100640.46;;;4.01;62.96
25510;BME280;13413;52.336;21.200;2023-03-03T12:21:59;100648.64;;;4.00;63.06
25510;BME280;13413;52.336;21.200;2023-03-03T12:25:22;100648.34;;;4.01;63.01
25510;BME280;13413;52.336;21.200;2023-03-03T12:28:23;100642.41;;;4.07;62.98
25510;BME280;13413;52.336;21.200;2023-03-03T12:31:32;100651.12;;;4.08;62.89
25510;BME280;13413;52.336;21.200;2023-03-03T12:34:28;100642.98;;;4.13;62.79
25510;BME280;13413;52.336;21.200;2023-03-03T12:42:09;100639.16;;;4.12;62.91
25510;BME280;13413;52.336;21.200;2023-03-03T12:45:13;100636.04;;;4.14;62.96
25510;BME280;13413;52.336;21.200;2023-03-03T12:48:18;100633.11;;;4.12;62.93
25510;BME280;13413;52.336;21.200;2023-03-03T12:51:24;100635.81;;;4.07;63.02
25510;BME280;13413;52.336;21.200;2023-03-03T12:54:39;100631.17;;;4.08;62.84
25510;BME280;13413;52.336;21.200;2023-03-03T12:57:40;100629.66;;;4.21;62.94
25510;BME280;13413;52.336;21.200;2023-03-03T13:00:46;100629.16;;;4.23;62.80
25510;BME280;13413;52.336;21.200;2023-03-03T13:03:48;100628.98;;;4.15;62.93
25510;BME280;13413;52.336;21.200;2023-03-03T13:06:50;100627.29;;;4.20;62.79
25510;BME280;13413;52.336;21.200;2023-03-03T13:10:01;100629.69;;;4.24;62.74
25510;BME280;13413;52.336;21.200;2023-03-03T13:13:01;100630.07;;;4.23;62.67
25510;BME280;13413;52.336;21.200;2023-03-03T13:19:03;100635.64;;;4.25;62.70
25510;BME280;13413;52.336;21.200;2023-03-03T13:22:07;100636.44;;;4.24;62.58
25510;BME280;13413;52.336;21.200;2023-03-03T13:25:18;100632.79;;;4.16;62.63
25510;BME280;13413;52.336;21.200;2023-03-03T13:28:24;100631.56;;;4.18;62.50
25510;BME280;13413;52.336;21.200;2023-03-03T13:31:22;100625.19;;;4.12;62.63
25510;BME280;13413;52.336;21.200;2023-03-03T13:34:29;100625.29;;;4.19;62.53
25510;BME280;13413;52.336;21.200;2023-03-03T13:37:28;100625.20;;;4.27;62.59
25510;BME280;13413;52.336;21.200;2023-03-03T13:40:27;100615.39;;;4.27;62.50
25510;BME280;13413;52.336;21.200;2023-03-03T13:43:27;100613.70;;;4.26;62.57
25510;BME280;13413;52.336;21.200;2023-03-03T13:46:32;100613.40;;;4.21;62.70
25510;BME280;13413;52.336;21.200;2023-03-03T13:49:44;100609.51;;;4.07;62.58
25510;BME280;13413;52.336;21.200;2023-03-03T13:52:47;100610.48;;;4.12;62.54
25510;BME280;13413;52.336;21.200;2023-03-03T13:55:54;100606.60;;;4.13;62.68
25510;BME280;13413;52.336;21.200;2023-03-03T13:58:56;100601.42;;;4.20;62.62
25510;BME280;13413;52.336;21.200;2023-03-03T14:02:00;100600.39;;;4.16;62.42
25510;BME280;13413;52.336;21.200;2023-03-03T14:05:02;100599.27;;;4.18;62.27
25510;BME280;13413;52.336;21.200;2023-03-03T14:08:00;100597.61;;;4.26;62.47
25510;BME280;13413;52.336;21.200;2023-03-03T14:11:09;100601.27;;;4.30;62.19
25510;BME280;13413;52.336;21.200;2023-03-03T14:14:11;100598.71;;;4.31;62.27
25510;BME280;13413;52.336;21.200;2023-03-03T14:17:14;100598.59;;;4.31;62.19
25510;BME280;13413;52.336;21.200;2023-03-03T14:20:17;100602.14;;;4.22;62.16
25510;BME280;13413;52.336;21.200;2023-03-03T14:23:18;100600.54;;;4.16;62.26
25510;BME280;13413;52.336;21.200;2023-03-03T14:26:14;100605.86;;;4.17;62.19
25510;BME280;13413;52.336;21.200;2023-03-03T14:29:21;100605.15;;;4.18;62.02
25510;BME280;13413;52.336;21.200;2023-03-03T14:32:24;100606.79;;;4.21;62.02
25510;BME280;13413;52.336;21.200;2023-03-03T14:35:21;100609.52;;;4.24;62.21
25510;BME280;13413;52.336;21.200;2023-03-03T14:38:20;100607.79;;;4.17;61.69
25510;BME280;13413;52.336;21.200;2023-03-03T14:41:20;100607.79;;;4.22;61.73
25510;BME280;13413;52.336;21.200;2023-03-03T14:44:34;100605.77;;;4.21;61.65
25510;BME280;13413;52.336;21.200;2023-03-03T14:47:29;100599.85;;;4.20;61.68
25510;BME280;13413;52.336;21.200;2023-03-03T14:50:34;100594.04;;;4.25;61.90
25510;BME280;13413;52.336;21.200;2023-03-03T14:53:35;100594.83;;;4.26;61.90
25510;BME280;13413;52.336;21.200;2023-03-03T15:02:31;100589.40;;;4.26;61.51
25510;BME280;13413;52.336;21.200;2023-03-03T15:05:29;100588.81;;;4.29;61.85
25510;BME280;13413;52.336;21.200;2023-03-03T15:08:31;100589.71;;;4.26;61.46
25510;BME280;13413;52.336;21.200;2023-03-03T15:11:33;100594.56;;;4.18;61.70
25510;BME280;13413;52.336;21.200;2023-03-03T15:14:37;100593.94;;;4.20;61.81
25510;BME280;13413;52.336;21.200;2023-03-03T15:17:35;100594.04;;;4.23;61.59
25510;BME280;13413;52.336;21.200;2023-03-03T15:20:37;100596.97;;;4.25;61.72
25510;BME280;13413;52.336;21.200;2023-03-03T15:23:47;100598.70;;;4.24;61.70
25510;BME280;13413;52.336;21.200;2023-03-03T15:26:49;100598.80;;;4.25;61.82
25510;BME280;13413;52.336;21.200;2023-03-03T15:29:56;100598.15;;;4.28;61.59
25510;BME280;13413;52.336;21.200;2023-03-03T15:33:00;100595.77;;;4.27;61.58
25510;BME280;13413;52.336;21.200;2023-03-03T15:36:06;100594.34;;;4.19;61.63
25510;BME280;13413;52.336;21.200;2023-03-03T15:39:09;100593.45;;;4.19;61.48
25510;BME280;13413;52.336;21.200;2023-03-03T15:42:13;100586.95;;;4.22;61.39
25510;BME280;13413;52.336;21.200;2023-03-03T15:45:14;100587.63;;;4.20;61.36
25510;BME280;13413;52.336;21.200;2023-03-03T15:48:33;100580.94;;;4.14;61.23
25510;BME280;13413;52.336;21.200;2023-03-03T15:51:54;100583.27;;;4.11;61.12
25510;BME280;13413;52.336;21.200;2023-03-03T15:55:04;100590.38;;;4.10;61.31
25510;BME280;13413;52.336;21.200;2023-03-03T15:58:20;100591.55;;;4.06;61.00
25510;BME280;13413;52.336;21.200;2023-03-03T16:01:22;100590.19;;;4.06;61.46
25510;BME280;13413;52.336;21.200;2023-03-03T16:04:19;100592.48;;;4.10;61.36
25510;BME280;13413;52.336;21.200;2023-03-03T16:07:27;100591.83;;;4.12;61.15
25510;BME280;13413;52.336;21.200;2023-03-03T16:10:33;100588.45;;;4.04;61.13
25510;BME280;13413;52.336;21.200;2023-03-03T16:13:39;100585.15;;;4.08;61.21
25510;BME280;13413;52.336;21.200;2023-03-03T16:16:44;100580.71;;;4.09;61.22
25510;BME280;13413;52.336;21.200;2023-03-03T16:19:43;100577.67;;;4.05;61.11
25510;BME280;13413;52.336;21.200;2023-03-03T16:23:03;100577.73;;;4.11;61.00
25510;BME280;13413;52.336;21.200;2023-03-03T16:26:11;100570.20;;;4.00;60.97
25510;BME280;13413;52.336;21.200;2023-03-03T16:29:21;100569.98;;;4.01;61.11
25510;BME280;13413;52.336;21.200;2023-03-03T16:32:23;100572.67;;;4.00;61.24
25510;BME280;13413;52.336;21.200;2023-03-03T16:35:24;100571.67;;;4.04;61.29